EZY5334 EHAM-EDDB
Flight info
| Callsign | EZY5334 |
|---|---|
| Flight time | N/A |
| Altitude | 33000 |
| Route | ARNEM L620 SUVOX Z718 OSNAD DCT BATEL T207 OGBER OGBER1R |
| Aircraft | A320/M-SDE3FGHIRWY/LB1 |
Departure
| Time | 2026-04-28 18:10 |
|---|---|
| Airport | Amsterdam Airport Schiphol (EHAM) |
Arrival
| Time | N/A |
|---|---|
| Airport | Berlin Brandenburg Airport (EDDB) |
| Time | Latitude | Longitude | Altitude | Speed | Heading |
|---|---|---|---|---|---|
| 2026-04-28 17:29 | 52.30987 | 4.75354 | -3 ft | 0 kts | 149° |
| 2026-04-28 17:53 | 52.30990 | 4.75351 | -3 ft | 4 kts | 152° |
| 2026-04-28 17:54 | 52.31001 | 4.75339 | -2 ft | 4 kts | 141° |
| 2026-04-28 17:54 | 52.31018 | 4.75308 | -2 ft | 4 kts | 110° |
| 2026-04-28 17:54 | 52.31019 | 4.75274 | -2 ft | 2 kts | 59° |
| 2026-04-28 17:54 | 52.31019 | 4.75272 | -2 ft | 1 kts | 58° |
| 2026-04-28 18:00 | 52.31046 | 4.75299 | -2 ft | 13 kts | 21° |
| 2026-04-28 18:00 | 52.31104 | 4.75380 | 0 ft | 11 kts | 53° |
| 2026-04-28 18:00 | 52.31162 | 4.75434 | 2 ft | 10 kts | 3° |
| 2026-04-28 18:00 | 52.31247 | 4.75427 | 5 ft | 14 kts | 356° |
| 2026-04-28 18:01 | 52.31344 | 4.75418 | 7 ft | 14 kts | 356° |
| 2026-04-28 18:01 | 52.31440 | 4.75410 | 10 ft | 13 kts | 357° |
| 2026-04-28 18:01 | 52.31500 | 4.75381 | 11 ft | 7 kts | 310° |
| 2026-04-28 18:01 | 52.31507 | 4.75233 | 9 ft | 15 kts | 267° |
| 2026-04-28 18:02 | 52.31502 | 4.75095 | 11 ft | 9 kts | 267° |
| 2026-04-28 18:02 | 52.31499 | 4.75005 | 13 ft | 8 kts | 266° |
| 2026-04-28 18:02 | 52.31493 | 4.74839 | 14 ft | 17 kts | 266° |
| 2026-04-28 18:02 | 52.31487 | 4.74631 | 16 ft | 20 kts | 265° |
| 2026-04-28 18:03 | 52.31480 | 4.74462 | 17 ft | 14 kts | 267° |
| 2026-04-28 18:03 | 52.31504 | 4.74311 | 14 ft | 14 kts | 324° |
| 2026-04-28 18:03 | 52.31595 | 4.74300 | 15 ft | 13 kts | 4° |
| 2026-04-28 18:03 | 52.31705 | 4.74304 | 15 ft | 20 kts | 4° |
| 2026-04-28 18:04 | 52.31858 | 4.74324 | 10 ft | 23 kts | 3° |
| 2026-04-28 18:04 | 52.31993 | 4.74327 | 8 ft | 17 kts | 347° |
| 2026-04-28 18:04 | 52.32035 | 4.74186 | 11 ft | 13 kts | 273° |
| 2026-04-28 18:04 | 52.32040 | 4.74037 | 14 ft | 13 kts | 271° |
| 2026-04-28 18:05 | 52.32043 | 4.73904 | 17 ft | 13 kts | 272° |
| 2026-04-28 18:05 | 52.32049 | 4.73749 | 19 ft | 26 kts | 275° |
| 2026-04-28 18:05 | 52.32075 | 4.73401 | 13 ft | 23 kts | 292° |
| 2026-04-28 18:05 | 52.32191 | 4.73211 | 6 ft | 26 kts | 320° |
| 2026-04-28 18:06 | 52.32338 | 4.73006 | -1 ft | 30 kts | 319° |
| 2026-04-28 18:06 | 52.32491 | 4.72791 | -3 ft | 28 kts | 320° |
| 2026-04-28 18:06 | 52.32636 | 4.72585 | -2 ft | 26 kts | 319° |
| 2026-04-28 18:06 | 52.32726 | 4.72435 | -3 ft | 18 kts | 311° |
| 2026-04-28 18:07 | 52.32812 | 4.72277 | 0 ft | 18 kts | 311° |
| 2026-04-28 18:07 | 52.32897 | 4.72121 | -2 ft | 18 kts | 309° |
| 2026-04-28 18:07 | 52.32971 | 4.71980 | -1 ft | 15 kts | 311° |
| 2026-04-28 18:07 | 52.33050 | 4.71836 | 2 ft | 21 kts | 312° |
| 2026-04-28 18:08 | 52.33140 | 4.71662 | 6 ft | 17 kts | 303° |
| 2026-04-28 18:08 | 52.33139 | 4.71506 | 11 ft | 12 kts | 249° |
| 2026-04-28 18:08 | 52.33145 | 4.71402 | 12 ft | 7 kts | 301° |
| 2026-04-28 18:08 | 52.33201 | 4.71299 | 15 ft | 20 kts | 312° |
| 2026-04-28 18:09 | 52.33309 | 4.71098 | 14 ft | 22 kts | 311° |
| 2026-04-28 18:09 | 52.33420 | 4.70952 | 16 ft | 20 kts | 340° |
| 2026-04-28 18:09 | 52.33472 | 4.70941 | 16 ft | 2 kts | 3° |
| 2026-04-28 18:09 | 52.33676 | 4.70962 | 21 ft | 65 kts | 4° |
| 2026-04-28 18:10 | 52.34343 | 4.71025 | 13 ft | 124 kts | 1° |
| 2026-04-28 18:10 | 52.35360 | 4.71104 | 88 ft | 163 kts | 9° |
| 2026-04-28 18:10 | 52.36527 | 4.71235 | 654 ft | 168 kts | 8° |
| 2026-04-28 18:10 | 52.37725 | 4.71361 | 1160 ft | 185 kts | 9° |
| 2026-04-28 18:11 | 52.39093 | 4.71505 | 1573 ft | 209 kts | 9° |
| 2026-04-28 18:11 | 52.40631 | 4.71666 | 2025 ft | 233 kts | 9° |
| 2026-04-28 18:11 | 52.42254 | 4.72099 | 2764 ft | 237 kts | 25° |
| 2026-04-28 18:11 | 52.43727 | 4.73310 | 3615 ft | 240 kts | 34° |
| 2026-04-28 18:12 | 52.45212 | 4.74666 | 4423 ft | 247 kts | 33° |
| 2026-04-28 18:12 | 52.46657 | 4.76237 | 5227 ft | 251 kts | 46° |
| 2026-04-28 18:12 | 52.47716 | 4.78513 | 6009 ft | 254 kts | 65° |
| 2026-04-28 18:12 | 52.48220 | 4.81283 | 6871 ft | 255 kts | 84° |
| 2026-04-28 18:13 | 52.48365 | 4.84185 | 7732 ft | 257 kts | 85° |
| 2026-04-28 18:13 | 52.48491 | 4.87148 | 8535 ft | 262 kts | 90° |
| 2026-04-28 18:13 | 52.48192 | 4.90114 | 9325 ft | 268 kts | 108° |
| 2026-04-28 18:13 | 52.47290 | 4.92811 | 10158 ft | 275 kts | 127° |
| 2026-04-28 18:14 | 52.45853 | 4.94945 | 10786 ft | 289 kts | 140° |
| 2026-04-28 18:14 | 52.44154 | 4.96958 | 11019 ft | 313 kts | 141° |
| 2026-04-28 18:14 | 52.42353 | 4.99048 | 11371 ft | 328 kts | 141° |
| 2026-04-28 18:14 | 52.40593 | 5.01464 | 12008 ft | 330 kts | 128° |
| 2026-04-28 18:15 | 52.39412 | 5.04684 | 12625 ft | 332 kts | 109° |
| 2026-04-28 18:15 | 52.38657 | 5.08280 | 13316 ft | 336 kts | 107° |
| 2026-04-28 18:15 | 52.37904 | 5.11928 | 14025 ft | 339 kts | 107° |
| 2026-04-28 18:15 | 52.37145 | 5.15593 | 14682 ft | 342 kts | 107° |
| 2026-04-28 18:16 | 52.36377 | 5.19293 | 15313 ft | 345 kts | 107° |
| 2026-04-28 18:16 | 52.35601 | 5.23032 | 15908 ft | 349 kts | 107° |
| 2026-04-28 18:16 | 52.34811 | 5.26823 | 16466 ft | 354 kts | 107° |
| 2026-04-28 18:16 | 52.34016 | 5.30636 | 17112 ft | 356 kts | 107° |
| 2026-04-28 18:17 | 52.33215 | 5.34471 | 17767 ft | 358 kts | 107° |
| 2026-04-28 18:17 | 52.32401 | 5.38345 | 18315 ft | 363 kts | 107° |
| 2026-04-28 18:17 | 52.31575 | 5.42265 | 18828 ft | 367 kts | 107° |
| 2026-04-28 18:17 | 52.30739 | 5.46221 | 19347 ft | 369 kts | 107° |
| 2026-04-28 18:18 | 52.29897 | 5.50201 | 19866 ft | 372 kts | 107° |
| 2026-04-28 18:18 | 52.29049 | 5.54213 | 20324 ft | 376 kts | 107° |
| 2026-04-28 18:18 | 52.28191 | 5.58273 | 20788 ft | 379 kts | 107° |
| 2026-04-28 18:18 | 52.27619 | 5.60979 | 21134 ft | 381 kts | 107° |
| 2026-04-28 18:19 | 52.26457 | 5.66455 | 21821 ft | 383 kts | 107° |
| 2026-04-28 18:19 | 52.25579 | 5.70568 | 22292 ft | 386 kts | 107° |
| 2026-04-28 18:19 | 52.24688 | 5.74727 | 22748 ft | 389 kts | 107° |
| 2026-04-28 18:19 | 52.23789 | 5.78899 | 23240 ft | 391 kts | 107° |
| 2026-04-28 18:20 | 52.22883 | 5.83092 | 23711 ft | 393 kts | 107° |
| 2026-04-28 18:20 | 52.21972 | 5.87311 | 24101 ft | 396 kts | 107° |
| 2026-04-28 18:20 | 52.21059 | 5.91552 | 24481 ft | 398 kts | 107° |
| 2026-04-28 18:20 | 52.20138 | 5.95822 | 24853 ft | 400 kts | 107° |
| 2026-04-28 18:21 | 52.19522 | 5.98668 | 25078 ft | 403 kts | 107° |
| 2026-04-28 18:21 | 52.18279 | 6.04391 | 25517 ft | 407 kts | 107° |
| 2026-04-28 18:21 | 52.17616 | 6.07440 | 25768 ft | 408 kts | 107° |
| 2026-04-28 18:21 | 52.16380 | 6.13123 | 26245 ft | 410 kts | 107° |
| 2026-04-28 18:22 | 52.15420 | 6.17525 | 26598 ft | 413 kts | 107° |
| 2026-04-28 18:22 | 52.14772 | 6.20490 | 26809 ft | 414 kts | 107° |
| 2026-04-28 18:22 | 52.13811 | 6.24871 | 27155 ft | 416 kts | 107° |
| 2026-04-28 18:22 | 52.12835 | 6.29312 | 27516 ft | 418 kts | 107° |
| 2026-04-28 18:23 | 52.11851 | 6.33785 | 27864 ft | 420 kts | 107° |
| 2026-04-28 18:23 | 52.10859 | 6.38272 | 28192 ft | 423 kts | 107° |
| 2026-04-28 18:23 | 52.09859 | 6.42784 | 28479 ft | 427 kts | 107° |
| 2026-04-28 18:23 | 52.08850 | 6.47350 | 28752 ft | 430 kts | 107° |
| 2026-04-28 18:24 | 52.07834 | 6.51945 | 29030 ft | 433 kts | 108° |
| 2026-04-28 18:24 | 52.07158 | 6.54998 | 29210 ft | 434 kts | 107° |
| 2026-04-28 18:24 | 52.05780 | 6.61202 | 29611 ft | 437 kts | 107° |
| 2026-04-28 18:24 | 52.04743 | 6.65850 | 29908 ft | 439 kts | 107° |
| 2026-04-28 18:25 | 52.03693 | 6.70516 | 30173 ft | 441 kts | 108° |
| 2026-04-28 18:25 | 52.02638 | 6.75206 | 30431 ft | 443 kts | 107° |
| 2026-04-28 18:25 | 52.01794 | 6.80008 | 30670 ft | 442 kts | 102° |
| 2026-04-28 18:26 | 52.00274 | 6.89717 | 31160 ft | 445 kts | 102° |
| 2026-04-28 18:26 | 51.99502 | 6.94599 | 31413 ft | 447 kts | 102° |
| 2026-04-28 18:26 | 51.98728 | 6.99463 | 31702 ft | 447 kts | 102° |
| 2026-04-28 18:26 | 51.97975 | 7.04365 | 31990 ft | 446 kts | 98° |
| 2026-04-28 18:27 | 51.97659 | 7.09335 | 32306 ft | 441 kts | 87° |
| 2026-04-28 18:27 | 51.97898 | 7.14266 | 32626 ft | 438 kts | 78° |
| 2026-04-28 18:27 | 51.98599 | 7.19060 | 32908 ft | 436 kts | 70° |
| 2026-04-28 18:27 | 51.99556 | 7.23712 | 33187 ft | 435 kts | 70° |
| 2026-04-28 18:28 | 52.00497 | 7.28371 | 33244 ft | 431 kts | 70° |
| 2026-04-28 18:28 | 52.02303 | 7.37528 | 33254 ft | 429 kts | 70° |
| 2026-04-28 18:29 | 52.04135 | 7.46806 | 33250 ft | 434 kts | 70° |
| 2026-04-28 18:29 | 52.05969 | 7.56089 | 33302 ft | 428 kts | 70° |
| 2026-04-28 18:29 | 52.06880 | 7.60692 | 33110 ft | 427 kts | 70° |
| 2026-04-28 18:30 | 52.07788 | 7.65292 | 33077 ft | 427 kts | 70° |
| 2026-04-28 18:30 | 52.08388 | 7.68348 | 33229 ft | 427 kts | 70° |
| 2026-04-28 18:30 | 52.09591 | 7.74501 | 33303 ft | 426 kts | 70° |
| 2026-04-28 18:31 | 52.11385 | 7.83690 | 33302 ft | 426 kts | 70° |
| 2026-04-28 18:31 | 52.13169 | 7.92893 | 33291 ft | 428 kts | 70° |
| 2026-04-28 18:32 | 52.14965 | 8.02148 | 33286 ft | 429 kts | 70° |
| 2026-04-28 18:32 | 52.16757 | 8.11444 | 33280 ft | 430 kts | 70° |
| 2026-04-28 18:33 | 52.18536 | 8.20736 | 33268 ft | 430 kts | 70° |
| 2026-04-28 18:33 | 52.20271 | 8.30053 | 33269 ft | 430 kts | 72° |
| 2026-04-28 18:34 | 52.21662 | 8.39543 | 33265 ft | 431 kts | 75° |
| 2026-04-28 18:34 | 52.22855 | 8.49138 | 33272 ft | 432 kts | 76° |
| 2026-04-28 18:35 | 52.24068 | 8.58726 | 33280 ft | 431 kts | 75° |
| 2026-04-28 18:35 | 52.25329 | 8.68224 | 33290 ft | 431 kts | 75° |
| 2026-04-28 18:36 | 52.26607 | 8.77781 | 33290 ft | 431 kts | 75° |
| 2026-04-28 18:36 | 52.27867 | 8.87341 | 33292 ft | 431 kts | 75° |
| 2026-04-28 18:37 | 52.29110 | 8.96910 | 33291 ft | 431 kts | 75° |
| 2026-04-28 18:37 | 52.30353 | 9.06534 | 33280 ft | 433 kts | 75° |
| 2026-04-28 18:38 | 52.31597 | 9.16180 | 33276 ft | 435 kts | 75° |
| 2026-04-28 18:38 | 52.32833 | 9.25867 | 33281 ft | 436 kts | 75° |
| 2026-04-28 18:39 | 52.34060 | 9.35573 | 33286 ft | 436 kts | 75° |
| 2026-04-28 18:39 | 52.35283 | 9.45281 | 33309 ft | 436 kts | 75° |
| 2026-04-28 18:40 | 52.36502 | 9.55024 | 33305 ft | 437 kts | 76° |
| 2026-04-28 18:40 | 52.37712 | 9.64765 | 33331 ft | 437 kts | 75° |
| 2026-04-28 18:41 | 52.38909 | 9.74505 | 33350 ft | 435 kts | 75° |
| 2026-04-28 18:41 | 52.40084 | 9.84135 | 33347 ft | 434 kts | 75° |
| 2026-04-28 18:42 | 52.41258 | 9.93812 | 33341 ft | 433 kts | 75° |
| 2026-04-28 18:42 | 52.42425 | 10.03483 | 33349 ft | 431 kts | 75° |
| 2026-04-28 18:43 | 52.43576 | 10.13071 | 33357 ft | 427 kts | 75° |
| 2026-04-28 18:43 | 52.44701 | 10.22587 | 33351 ft | 424 kts | 75° |
| 2026-04-28 18:44 | 52.45816 | 10.32052 | 33345 ft | 422 kts | 75° |
| 2026-04-28 18:44 | 52.47472 | 10.46195 | 33339 ft | 420 kts | 75° |
| 2026-04-28 18:45 | 52.48567 | 10.55623 | 33334 ft | 421 kts | 75° |
| 2026-04-28 18:45 | 52.49650 | 10.65037 | 33029 ft | 425 kts | 75° |
| 2026-04-28 18:46 | 52.50196 | 10.69811 | 32378 ft | 427 kts | 76° |
| 2026-04-28 18:46 | 52.50742 | 10.74606 | 31733 ft | 426 kts | 76° |
| 2026-04-28 18:46 | 52.51283 | 10.79387 | 31098 ft | 425 kts | 76° |
| 2026-04-28 18:46 | 52.51821 | 10.84152 | 30481 ft | 423 kts | 76° |
| 2026-04-28 18:47 | 52.52353 | 10.88889 | 29785 ft | 420 kts | 76° |
| 2026-04-28 18:47 | 52.52880 | 10.93602 | 29071 ft | 418 kts | 76° |
| 2026-04-28 18:47 | 52.53402 | 10.98286 | 28378 ft | 416 kts | 76° |
| 2026-04-28 18:47 | 52.53918 | 11.02956 | 27701 ft | 414 kts | 76° |
| 2026-04-28 18:48 | 52.54432 | 11.07609 | 27065 ft | 413 kts | 76° |
| 2026-04-28 18:48 | 52.54758 | 11.12301 | 26419 ft | 415 kts | 84° |
| 2026-04-28 18:48 | 52.54866 | 11.17014 | 25930 ft | 410 kts | 84° |
| 2026-04-28 18:48 | 52.54972 | 11.21656 | 25511 ft | 405 kts | 84° |
| 2026-04-28 18:49 | 52.55078 | 11.26255 | 24894 ft | 398 kts | 84° |
| 2026-04-28 18:49 | 52.55112 | 11.27785 | 24690 ft | 394 kts | 84° |
| 2026-04-28 18:49 | 52.55270 | 11.35084 | 23670 ft | 376 kts | 84° |
| 2026-04-28 18:49 | 52.55362 | 11.39323 | 22976 ft | 367 kts | 84° |
| 2026-04-28 18:50 | 52.55450 | 11.43470 | 22293 ft | 360 kts | 84° |
| 2026-04-28 18:50 | 52.55534 | 11.47539 | 21629 ft | 353 kts | 84° |
| 2026-04-28 18:50 | 52.55619 | 11.51541 | 20982 ft | 347 kts | 84° |
| 2026-04-28 18:50 | 52.55700 | 11.55410 | 20372 ft | 342 kts | 84° |
| 2026-04-28 18:51 | 52.55780 | 11.59300 | 19750 ft | 338 kts | 84° |
| 2026-04-28 18:51 | 52.55859 | 11.63146 | 19139 ft | 335 kts | 84° |
| 2026-04-28 18:51 | 52.55934 | 11.66941 | 18528 ft | 331 kts | 84° |
| 2026-04-28 18:51 | 52.56008 | 11.70700 | 17849 ft | 327 kts | 84° |
| 2026-04-28 18:52 | 52.56086 | 11.74418 | 17176 ft | 323 kts | 82° |
| 2026-04-28 18:52 | 52.56562 | 11.77944 | 16526 ft | 313 kts | 66° |
| 2026-04-28 18:52 | 52.57313 | 11.81287 | 15886 ft | 310 kts | 65° |
| 2026-04-28 18:52 | 52.58085 | 11.84587 | 15252 ft | 308 kts | 65° |
| 2026-04-28 18:53 | 52.58855 | 11.87864 | 14647 ft | 306 kts | 65° |
| 2026-04-28 18:53 | 52.59608 | 11.91069 | 14377 ft | 292 kts | 65° |
| 2026-04-28 18:53 | 52.60310 | 11.94091 | 14318 ft | 273 kts | 65° |
| 2026-04-28 18:53 | 52.60973 | 11.96975 | 14330 ft | 268 kts | 65° |
| 2026-04-28 18:54 | 52.61433 | 11.99937 | 14325 ft | 272 kts | 83° |
| 2026-04-28 18:54 | 52.61461 | 12.03064 | 14340 ft | 274 kts | 85° |
| 2026-04-28 18:54 | 52.61469 | 12.06203 | 14330 ft | 274 kts | 85° |
| 2026-04-28 18:54 | 52.61472 | 12.09337 | 14344 ft | 274 kts | 85° |
| 2026-04-28 18:55 | 52.61475 | 12.12465 | 14333 ft | 274 kts | 85° |
| 2026-04-28 18:55 | 52.61477 | 12.14542 | 14332 ft | 274 kts | 85° |
| 2026-04-28 18:55 | 52.61480 | 12.18738 | 14331 ft | 274 kts | 85° |
| 2026-04-28 18:55 | 52.61480 | 12.21878 | 14331 ft | 274 kts | 85° |
| 2026-04-28 18:56 | 52.61481 | 12.25018 | 14331 ft | 274 kts | 85° |
| 2026-04-28 18:56 | 52.61482 | 12.28157 | 14344 ft | 274 kts | 85° |
| 2026-04-28 18:56 | 52.61481 | 12.31248 | 14334 ft | 273 kts | 85° |
| 2026-04-28 18:56 | 52.61477 | 12.34372 | 14331 ft | 272 kts | 85° |
| 2026-04-28 18:57 | 52.61472 | 12.37488 | 14331 ft | 272 kts | 85° |
| 2026-04-28 18:57 | 52.61467 | 12.40602 | 14332 ft | 272 kts | 85° |
| 2026-04-28 18:57 | 52.61463 | 12.43718 | 14331 ft | 272 kts | 85° |
| 2026-04-28 18:57 | 52.61459 | 12.46831 | 14332 ft | 272 kts | 85° |
| 2026-04-28 18:58 | 52.61455 | 12.49948 | 14326 ft | 272 kts | 85° |
| 2026-04-28 18:58 | 52.61451 | 12.53074 | 14131 ft | 273 kts | 85° |
| 2026-04-28 18:58 | 52.61441 | 12.56182 | 13862 ft | 271 kts | 86° |
| 2026-04-28 18:58 | 52.61431 | 12.59265 | 13592 ft | 269 kts | 86° |
| 2026-04-28 18:59 | 52.61422 | 12.62337 | 13324 ft | 268 kts | 85° |
| 2026-04-28 18:59 | 52.61410 | 12.65484 | 12621 ft | 282 kts | 88° |
| 2026-04-28 18:59 | 52.61122 | 12.68662 | 12369 ft | 281 kts | 101° |
| 2026-04-28 18:59 | 52.60445 | 12.71673 | 12052 ft | 281 kts | 111° |
| 2026-04-28 19:00 | 52.59411 | 12.74400 | 11734 ft | 283 kts | 127° |
| 2026-04-28 19:00 | 52.57979 | 12.76619 | 11408 ft | 284 kts | 141° |
| 2026-04-28 19:00 | 52.56408 | 12.78505 | 11089 ft | 283 kts | 142° |
| 2026-04-28 19:00 | 52.54833 | 12.80410 | 10828 ft | 279 kts | 141° |
| 2026-04-28 19:01 | 52.53288 | 12.82286 | 10582 ft | 275 kts | 141° |
| 2026-04-28 19:01 | 52.51756 | 12.84144 | 10340 ft | 271 kts | 141° |
| 2026-04-28 19:01 | 52.50250 | 12.85965 | 10163 ft | 268 kts | 141° |
| 2026-04-28 19:01 | 52.48749 | 12.87772 | 10028 ft | 267 kts | 141° |
| 2026-04-28 19:02 | 52.47256 | 12.89573 | 9893 ft | 266 kts | 141° |
| 2026-04-28 19:02 | 52.45755 | 12.91388 | 9762 ft | 270 kts | 141° |
| 2026-04-28 19:02 | 52.44264 | 12.93194 | 9621 ft | 265 kts | 141° |
| 2026-04-28 19:02 | 52.42787 | 12.94981 | 9485 ft | 263 kts | 141° |
| 2026-04-28 19:03 | 52.41314 | 12.96759 | 9348 ft | 262 kts | 141° |
| 2026-04-28 19:03 | 52.39804 | 12.98427 | 9222 ft | 262 kts | 151° |
| 2026-04-28 19:03 | 52.38093 | 12.99458 | 9079 ft | 263 kts | 167° |
| 2026-04-28 19:03 | 52.36270 | 12.99695 | 8966 ft | 263 kts | 186° |
| 2026-04-28 19:04 | 52.34542 | 12.98835 | 8831 ft | 260 kts | 212° |
| 2026-04-28 19:04 | 52.33208 | 12.96911 | 8686 ft | 255 kts | 238° |
| 2026-04-28 19:04 | 52.32503 | 12.94303 | 8562 ft | 250 kts | 262° |
| 2026-04-28 19:04 | 52.32217 | 12.91508 | 8376 ft | 251 kts | 259° |
| 2026-04-28 19:05 | 52.31667 | 12.88813 | 8055 ft | 247 kts | 251° |
| 2026-04-28 19:05 | 52.30995 | 12.86261 | 7714 ft | 241 kts | 248° |
| 2026-04-28 19:05 | 52.30312 | 12.83786 | 7366 ft | 237 kts | 248° |
| 2026-04-28 19:05 | 52.29650 | 12.81351 | 7021 ft | 233 kts | 248° |
| 2026-04-28 19:06 | 52.29012 | 12.78926 | 6561 ft | 234 kts | 249° |
| 2026-04-28 19:06 | 52.28594 | 12.77293 | 6194 ft | 237 kts | 249° |
| 2026-04-28 19:06 | 52.27742 | 12.73933 | 5463 ft | 241 kts | 249° |
| 2026-04-28 19:06 | 52.27321 | 12.72249 | 5109 ft | 243 kts | 249° |
| 2026-04-28 19:07 | 52.26682 | 12.69676 | 4550 ft | 245 kts | 249° |
| 2026-04-28 19:07 | 52.26019 | 12.67116 | 4060 ft | 244 kts | 241° |
| 2026-04-28 19:07 | 52.24893 | 12.65245 | 3981 ft | 224 kts | 205° |
| 2026-04-28 19:07 | 52.23415 | 12.64755 | 3994 ft | 216 kts | 169° |
| 2026-04-28 19:08 | 52.21766 | 12.66253 | 4003 ft | 205 kts | 121° |
| 2026-04-28 19:08 | 52.21363 | 12.67656 | 4010 ft | 202 kts | 102° |
| 2026-04-28 19:08 | 52.21090 | 12.69897 | 4004 ft | 201 kts | 96° |
| 2026-04-28 19:08 | 52.20891 | 12.72159 | 3998 ft | 201 kts | 95° |
| 2026-04-28 19:09 | 52.20703 | 12.74421 | 3991 ft | 201 kts | 95° |
| 2026-04-28 19:09 | 52.20519 | 12.76678 | 3993 ft | 201 kts | 95° |
| 2026-04-28 19:09 | 52.20334 | 12.78941 | 3995 ft | 201 kts | 95° |
| 2026-04-28 19:09 | 52.20149 | 12.81202 | 3996 ft | 201 kts | 95° |
| 2026-04-28 19:10 | 52.19969 | 12.83464 | 3994 ft | 201 kts | 94° |
| 2026-04-28 19:10 | 52.19805 | 12.85726 | 3996 ft | 201 kts | 94° |
| 2026-04-28 19:10 | 52.19645 | 12.87989 | 3996 ft | 201 kts | 94° |
| 2026-04-28 19:10 | 52.19513 | 12.90258 | 3994 ft | 200 kts | 85° |
| 2026-04-28 19:11 | 52.19947 | 12.92350 | 3999 ft | 197 kts | 56° |
| 2026-04-28 19:11 | 52.20739 | 12.94133 | 3996 ft | 197 kts | 56° |
| 2026-04-28 19:11 | 52.21461 | 12.96034 | 3996 ft | 197 kts | 59° |
| 2026-04-28 19:11 | 52.22143 | 12.97971 | 3996 ft | 197 kts | 60° |
| 2026-04-28 19:12 | 52.22840 | 12.99899 | 3995 ft | 197 kts | 54° |
| 2026-04-28 19:12 | 52.23578 | 13.01778 | 3993 ft | 197 kts | 61° |
| 2026-04-28 19:12 | 52.24160 | 13.03794 | 3998 ft | 197 kts | 66° |
| 2026-04-28 19:12 | 52.24685 | 13.05869 | 3997 ft | 198 kts | 67° |
| 2026-04-28 19:13 | 52.25194 | 13.07951 | 3998 ft | 197 kts | 67° |
| 2026-04-28 19:13 | 52.25696 | 13.10019 | 3993 ft | 191 kts | 67° |
| 2026-04-28 19:13 | 52.26170 | 13.11978 | 3988 ft | 180 kts | 67° |
| 2026-04-28 19:13 | 52.26626 | 13.13860 | 3999 ft | 177 kts | 67° |
| 2026-04-28 19:14 | 52.27078 | 13.15731 | 4003 ft | 177 kts | 67° |
| 2026-04-28 19:14 | 52.27532 | 13.17608 | 3922 ft | 179 kts | 67° |
| 2026-04-28 19:14 | 52.27986 | 13.19493 | 3743 ft | 178 kts | 67° |
| 2026-04-28 19:14 | 52.28438 | 13.21364 | 3511 ft | 176 kts | 67° |
| 2026-04-28 19:15 | 52.28886 | 13.23224 | 3285 ft | 175 kts | 68° |
| 2026-04-28 19:15 | 52.29324 | 13.25045 | 3029 ft | 174 kts | 67° |
| 2026-04-28 19:15 | 52.29763 | 13.26872 | 2802 ft | 172 kts | 68° |
| 2026-04-28 19:15 | 52.30058 | 13.28099 | 2637 ft | 171 kts | 68° |
| 2026-04-28 19:16 | 52.30627 | 13.30467 | 2331 ft | 169 kts | 68° |
| 2026-04-28 19:16 | 52.31059 | 13.32268 | 2103 ft | 169 kts | 67° |
| 2026-04-28 19:16 | 52.31474 | 13.34002 | 1869 ft | 157 kts | 67° |
| 2026-04-28 19:16 | 52.31861 | 13.35619 | 1662 ft | 151 kts | 68° |
| 2026-04-28 19:17 | 52.32238 | 13.37192 | 1453 ft | 146 kts | 67° |
| 2026-04-28 19:17 | 52.32591 | 13.38669 | 1274 ft | 135 kts | 67° |
| 2026-04-28 19:17 | 52.32928 | 13.40078 | 1078 ft | 131 kts | 67° |
| 2026-04-28 19:17 | 52.33262 | 13.41476 | 895 ft | 132 kts | 68° |
| 2026-04-28 19:18 | 52.33593 | 13.42877 | 701 ft | 132 kts | 68° |
| 2026-04-28 19:18 | 52.33923 | 13.44268 | 511 ft | 132 kts | 68° |
| 2026-04-28 19:18 | 52.34256 | 13.45649 | 389 ft | 132 kts | 68° |
| 2026-04-28 19:18 | 52.34591 | 13.47051 | 174 ft | 131 kts | 68° |
| 2026-04-28 19:19 | 52.34902 | 13.48349 | 216 ft | 128 kts | 68° |
| 2026-04-28 19:19 | 52.35234 | 13.49817 | 652 ft | 145 kts | 71° |
| 2026-04-28 19:19 | 52.35398 | 13.51502 | 1087 ft | 158 kts | 82° |
| 2026-04-28 19:19 | 52.35452 | 13.53310 | 1501 ft | 149 kts | 85° |
| 2026-04-28 19:20 | 52.35466 | 13.54961 | 1948 ft | 141 kts | 85° |
| 2026-04-28 19:20 | 52.35476 | 13.56551 | 2392 ft | 139 kts | 85° |
| 2026-04-28 19:20 | 52.35490 | 13.58136 | 2838 ft | 139 kts | 85° |
| 2026-04-28 19:20 | 52.35511 | 13.59724 | 3270 ft | 141 kts | 85° |
| 2026-04-28 19:21 | 52.35542 | 13.61401 | 3725 ft | 154 kts | 85° |
| 2026-04-28 19:21 | 52.35583 | 13.63225 | 4007 ft | 178 kts | 87° |
| 2026-04-28 19:21 | 52.35333 | 13.65417 | 4017 ft | 211 kts | 105° |
| 2026-04-28 19:21 | 52.35003 | 13.67804 | 4002 ft | 217 kts | 98° |
| 2026-04-28 19:22 | 52.34504 | 13.70141 | 4005 ft | 222 kts | 122° |
| 2026-04-28 19:22 | 52.33788 | 13.71385 | 4008 ft | 225 kts | 142° |
| 2026-04-28 19:22 | 52.31800 | 13.72291 | 4011 ft | 232 kts | 185° |
| 2026-04-28 19:22 | 52.30312 | 13.71329 | 4190 ft | 234 kts | 218° |
| 2026-04-28 19:23 | 52.29354 | 13.69207 | 4449 ft | 235 kts | 253° |
| 2026-04-28 19:23 | 52.29293 | 13.66596 | 4716 ft | 232 kts | 289° |
| 2026-04-28 19:23 | 52.30070 | 13.64324 | 4939 ft | 231 kts | 309° |
| 2026-04-28 19:23 | 52.30772 | 13.61971 | 5006 ft | 235 kts | 281° |
| 2026-04-28 19:24 | 52.30632 | 13.59335 | 5009 ft | 237 kts | 248° |
| 2026-04-28 19:24 | 52.29653 | 13.57209 | 5011 ft | 237 kts | 214° |
| 2026-04-28 19:24 | 52.28147 | 13.56233 | 5015 ft | 234 kts | 182° |
| 2026-04-28 19:24 | 52.26540 | 13.56437 | 5010 ft | 233 kts | 167° |
| 2026-04-28 19:25 | 52.24951 | 13.56958 | 5012 ft | 233 kts | 166° |
| 2026-04-28 19:25 | 52.23370 | 13.57519 | 5009 ft | 233 kts | 165° |
| 2026-04-28 19:25 | 52.21788 | 13.58087 | 5014 ft | 233 kts | 165° |
| 2026-04-28 19:25 | 52.20204 | 13.58644 | 5010 ft | 233 kts | 165° |
| 2026-04-28 19:26 | 52.18618 | 13.59197 | 5014 ft | 233 kts | 165° |
| 2026-04-28 19:26 | 52.17041 | 13.59743 | 4847 ft | 231 kts | 165° |
| 2026-04-28 19:26 | 52.15464 | 13.60289 | 4488 ft | 231 kts | 165° |
| 2026-04-28 19:26 | 52.13893 | 13.60801 | 4171 ft | 231 kts | 171° |
| 2026-04-28 19:27 | 52.12346 | 13.60402 | 4000 ft | 231 kts | 206° |
| 2026-04-28 19:27 | 52.11143 | 13.58604 | 4004 ft | 237 kts | 241° |
| 2026-04-28 19:27 | 52.10721 | 13.56097 | 4005 ft | 234 kts | 275° |
| 2026-04-28 19:27 | 52.11080 | 13.53546 | 4007 ft | 233 kts | 292° |
| 2026-04-28 19:28 | 52.11676 | 13.51038 | 4008 ft | 236 kts | 295° |
| 2026-04-28 19:28 | 52.12300 | 13.48562 | 4005 ft | 236 kts | 295° |
| 2026-04-28 19:28 | 52.12930 | 13.46090 | 4006 ft | 236 kts | 295° |
| 2026-04-28 19:28 | 52.13551 | 13.43655 | 4004 ft | 236 kts | 295° |
| 2026-04-28 19:29 | 52.14182 | 13.41189 | 4004 ft | 236 kts | 295° |
| 2026-04-28 19:29 | 52.14609 | 13.39522 | 4004 ft | 236 kts | 295° |
| 2026-04-28 19:29 | 52.15445 | 13.36254 | 4003 ft | 236 kts | 295° |
| 2026-04-28 19:29 | 52.16077 | 13.33786 | 4006 ft | 236 kts | 295° |
| 2026-04-28 19:30 | 52.16706 | 13.31326 | 4004 ft | 236 kts | 295° |
| 2026-04-28 19:30 | 52.17330 | 13.28843 | 4006 ft | 236 kts | 291° |
| 2026-04-28 19:30 | 52.17482 | 13.26185 | 4007 ft | 240 kts | 262° |
| 2026-04-28 19:30 | 52.17114 | 13.23528 | 4005 ft | 241 kts | 256° |
| 2026-04-28 19:31 | 52.16666 | 13.20888 | 4007 ft | 241 kts | 255° |
| 2026-04-28 19:31 | 52.16211 | 13.18261 | 4003 ft | 241 kts | 255° |
| 2026-04-28 19:31 | 52.15751 | 13.15629 | 4002 ft | 241 kts | 255° |
| 2026-04-28 19:31 | 52.15292 | 13.13004 | 4000 ft | 241 kts | 255° |
| 2026-04-28 19:32 | 52.14832 | 13.10372 | 3998 ft | 241 kts | 255° |
| 2026-04-28 19:32 | 52.14372 | 13.07745 | 4003 ft | 241 kts | 255° |
| 2026-04-28 19:32 | 52.13917 | 13.05151 | 4008 ft | 241 kts | 255° |
| 2026-04-28 19:32 | 52.13459 | 13.02526 | 4000 ft | 241 kts | 255° |
| 2026-04-28 19:33 | 52.12999 | 12.99907 | 3999 ft | 241 kts | 255° |
| 2026-04-28 19:33 | 52.12540 | 12.97279 | 3999 ft | 241 kts | 255° |
| 2026-04-28 19:33 | 52.12080 | 12.94651 | 3999 ft | 241 kts | 255° |
| 2026-04-28 19:33 | 52.11620 | 12.92030 | 3999 ft | 241 kts | 255° |
| 2026-04-28 19:34 | 52.11160 | 12.89405 | 3997 ft | 241 kts | 255° |
| 2026-04-28 19:34 | 52.10697 | 12.86777 | 3998 ft | 241 kts | 255° |
| 2026-04-28 19:34 | 52.10235 | 12.84157 | 4003 ft | 241 kts | 255° |
| 2026-04-28 19:34 | 52.09773 | 12.81545 | 4001 ft | 241 kts | 255° |
| 2026-04-28 19:35 | 52.09312 | 12.78924 | 4002 ft | 240 kts | 257° |
| 2026-04-28 19:35 | 52.09275 | 12.76262 | 3995 ft | 236 kts | 288° |
| 2026-04-28 19:35 | 52.09995 | 12.73905 | 4006 ft | 233 kts | 306° |
| 2026-04-28 19:35 | 52.10915 | 12.71738 | 4005 ft | 232 kts | 311° |
| 2026-04-28 19:36 | 52.12019 | 12.69967 | 3990 ft | 214 kts | 333° |
| 2026-04-28 19:36 | 52.13392 | 12.69424 | 4002 ft | 201 kts | 9° |
| 2026-04-28 19:36 | 52.14634 | 12.70314 | 4004 ft | 197 kts | 45° |
| 2026-04-28 19:36 | 52.15343 | 12.72173 | 4011 ft | 198 kts | 66° |
| 2026-04-28 19:37 | 52.15832 | 12.74298 | 4025 ft | 197 kts | 70° |
| 2026-04-28 19:37 | 52.16130 | 12.75698 | 4033 ft | 198 kts | 70° |
| 2026-04-28 19:37 | 52.16813 | 12.78442 | 4007 ft | 197 kts | 62° |
| 2026-04-28 19:37 | 52.17468 | 12.80401 | 4001 ft | 197 kts | 60° |
| 2026-04-28 19:38 | 52.18139 | 12.82351 | 4003 ft | 197 kts | 60° |
| 2026-04-28 19:38 | 52.18805 | 12.84299 | 4007 ft | 197 kts | 62° |
| 2026-04-28 19:38 | 52.19384 | 12.86324 | 4008 ft | 197 kts | 65° |
| 2026-04-28 19:38 | 52.19932 | 12.88375 | 4008 ft | 197 kts | 66° |
| 2026-04-28 19:39 | 52.20475 | 12.90438 | 4013 ft | 204 kts | 66° |
| 2026-04-28 19:39 | 52.21028 | 12.92567 | 4007 ft | 200 kts | 66° |
| 2026-04-28 19:39 | 52.21568 | 12.94633 | 4008 ft | 197 kts | 66° |
| 2026-04-28 19:39 | 52.22107 | 12.96687 | 4005 ft | 197 kts | 66° |
| 2026-04-28 19:40 | 52.22643 | 12.98739 | 4005 ft | 197 kts | 66° |
| 2026-04-28 19:40 | 52.23181 | 13.00794 | 4007 ft | 197 kts | 66° |
| 2026-04-28 19:40 | 52.23710 | 13.02819 | 4007 ft | 197 kts | 66° |
| 2026-04-28 19:40 | 52.24248 | 13.04870 | 4013 ft | 197 kts | 66° |
| 2026-04-28 19:41 | 52.24785 | 13.06923 | 4008 ft | 197 kts | 66° |
| 2026-04-28 19:41 | 52.25321 | 13.08977 | 4009 ft | 197 kts | 66° |
| 2026-04-28 19:41 | 52.25858 | 13.11028 | 4009 ft | 197 kts | 66° |
| 2026-04-28 19:41 | 52.26393 | 13.13079 | 4010 ft | 196 kts | 66° |
| 2026-04-28 19:42 | 52.26920 | 13.15136 | 4012 ft | 197 kts | 68° |
| 2026-04-28 19:42 | 52.27397 | 13.17228 | 4011 ft | 197 kts | 69° |
| 2026-04-28 19:42 | 52.27866 | 13.19333 | 4008 ft | 192 kts | 69° |
| 2026-04-28 19:42 | 52.28161 | 13.20672 | 3952 ft | 181 kts | 69° |
| 2026-04-28 19:43 | 52.28710 | 13.23138 | 3746 ft | 169 kts | 68° |
| 2026-04-28 19:43 | 52.29143 | 13.24922 | 3459 ft | 169 kts | 67° |
| 2026-04-28 19:43 | 52.29598 | 13.26699 | 3167 ft | 167 kts | 66° |
| 2026-04-28 19:43 | 52.30048 | 13.28422 | 3017 ft | 165 kts | 66° |
| 2026-04-28 19:44 | 52.30494 | 13.30146 | 2795 ft | 164 kts | 66° |
| 2026-04-28 19:44 | 52.30938 | 13.31859 | 2455 ft | 163 kts | 66° |
| 2026-04-28 19:44 | 52.31363 | 13.33554 | 2037 ft | 159 kts | 68° |
| 2026-04-28 19:44 | 52.31757 | 13.35231 | 1633 ft | 157 kts | 68° |
| 2026-04-28 19:45 | 52.32143 | 13.36889 | 1338 ft | 156 kts | 68° |
| 2026-04-28 19:45 | 52.32521 | 13.38542 | 1092 ft | 154 kts | 68° |
| 2026-04-28 19:45 | 52.32935 | 13.40170 | 937 ft | 156 kts | 66° |
| 2026-04-28 19:45 | 52.33320 | 13.41800 | 763 ft | 145 kts | 67° |
| 2026-04-28 19:46 | 52.33692 | 13.43255 | 592 ft | 134 kts | 67° |
| 2026-04-28 19:46 | 52.34017 | 13.44656 | 404 ft | 130 kts | 66° |
| 2026-04-28 19:46 | 52.34349 | 13.46013 | 307 ft | 128 kts | 68° |